sensor_id;sensor_type;location;lat;lon;timestamp;P1;durP1;ratioP1;P2;durP2;ratioP2
73428;SDS011;61643;49.564;17.412;2022-11-15T00:00:48;15.98;;;7.28;;
73428;SDS011;61643;49.564;17.412;2022-11-15T00:03:16;16.85;;;7.95;;
73428;SDS011;61643;49.564;17.412;2022-11-15T00:05:43;16.60;;;8.10;;
73428;SDS011;61643;49.564;17.412;2022-11-15T00:08:09;17.15;;;7.50;;
73428;SDS011;61643;49.564;17.412;2022-11-15T00:10:34;16.35;;;7.90;;
73428;SDS011;61643;49.564;17.412;2022-11-15T00:13:00;17.15;;;7.80;;
73428;SDS011;61643;49.564;17.412;2022-11-15T00:15:28;16.58;;;8.07;;
73428;SDS011;61643;49.564;17.412;2022-11-15T00:17:54;17.27;;;8.27;;
73428;SDS011;61643;49.564;17.412;2022-11-15T00:20:19;18.13;;;8.57;;
73428;SDS011;61643;49.564;17.412;2022-11-15T00:22:44;17.03;;;9.27;;
73428;SDS011;61643;49.564;17.412;2022-11-15T00:25:10;20.23;;;8.73;;
73428;SDS011;61643;49.564;17.412;2022-11-15T00:27:35;17.73;;;8.70;;
73428;SDS011;61643;49.564;17.412;2022-11-15T00:30:00;13.37;;;7.50;;
73428;SDS011;61643;49.564;17.412;2022-11-15T00:32:26;18.33;;;7.70;;
73428;SDS011;61643;49.564;17.412;2022-11-15T00:34:51;19.07;;;8.53;;
73428;SDS011;61643;49.564;17.412;2022-11-15T00:37:16;19.60;;;8.50;;
73428;SDS011;61643;49.564;17.412;2022-11-15T00:39:42;18.10;;;8.47;;
73428;SDS011;61643;49.564;17.412;2022-11-15T00:42:07;20.27;;;9.20;;
73428;SDS011;61643;49.564;17.412;2022-11-15T00:44:32;18.70;;;8.80;;
73428;SDS011;61643;49.564;17.412;2022-11-15T00:46:58;20.23;;;8.80;;
73428;SDS011;61643;49.564;17.412;2022-11-15T00:49:23;19.63;;;8.23;;
73428;SDS011;61643;49.564;17.412;2022-11-15T00:51:49;17.17;;;8.23;;
73428;SDS011;61643;49.564;17.412;2022-11-15T00:54:14;21.23;;;10.23;;
73428;SDS011;61643;49.564;17.412;2022-11-15T00:56:39;23.10;;;10.00;;
73428;SDS011;61643;49.564;17.412;2022-11-15T00:59:04;19.40;;;9.70;;
73428;SDS011;61643;49.564;17.412;2022-11-15T01:01:30;21.07;;;9.03;;
73428;SDS011;61643;49.564;17.412;2022-11-15T01:03:55;20.80;;;9.77;;
73428;SDS011;61643;49.564;17.412;2022-11-15T01:06:20;21.80;;;9.50;;
73428;SDS011;61643;49.564;17.412;2022-11-15T01:08:46;22.53;;;9.73;;
73428;SDS011;61643;49.564;17.412;2022-11-15T01:11:11;19.60;;;9.23;;
73428;SDS011;61643;49.564;17.412;2022-11-15T01:13:37;21.17;;;9.20;;
73428;SDS011;61643;49.564;17.412;2022-11-15T01:16:11;19.30;;;9.25;;
73428;SDS011;61643;49.564;17.412;2022-11-15T01:18:39;22.25;;;9.65;;
73428;SDS011;61643;49.564;17.412;2022-11-15T01:21:06;20.75;;;9.75;;
73428;SDS011;61643;49.564;17.412;2022-11-15T01:23:35;22.73;;;9.57;;
73428;SDS011;61643;49.564;17.412;2022-11-15T01:26:02;20.55;;;9.55;;
73428;SDS011;61643;49.564;17.412;2022-11-15T01:28:29;23.92;;;9.80;;
73428;SDS011;61643;49.564;17.412;2022-11-15T01:31:02;20.60;;;9.30;;
73428;SDS011;61643;49.564;17.412;2022-11-15T01:33:30;22.17;;;9.98;;
73428;SDS011;61643;49.564;17.412;2022-11-15T01:35:56;20.42;;;9.52;;
73428;SDS011;61643;49.564;17.412;2022-11-15T01:38:22;23.95;;;9.40;;
73428;SDS011;61643;49.564;17.412;2022-11-15T01:40:47;22.95;;;9.85;;
73428;SDS011;61643;49.564;17.412;2022-11-15T01:43:22;22.20;;;9.40;;
73428;SDS011;61643;49.564;17.412;2022-11-15T01:45:55;18.65;;;8.93;;
73428;SDS011;61643;49.564;17.412;2022-11-15T01:48:26;20.83;;;9.85;;
73428;SDS011;61643;49.564;17.412;2022-11-15T01:50:57;22.50;;;9.93;;
73428;SDS011;61643;49.564;17.412;2022-11-15T01:53:24;21.58;;;9.40;;
73428;SDS011;61643;49.564;17.412;2022-11-15T01:55:51;20.45;;;9.27;;
73428;SDS011;61643;49.564;17.412;2022-11-15T01:58:17;19.73;;;9.02;;
73428;SDS011;61643;49.564;17.412;2022-11-15T02:00:43;21.23;;;9.18;;
73428;SDS011;61643;49.564;17.412;2022-11-15T02:03:08;21.67;;;8.93;;
73428;SDS011;61643;49.564;17.412;2022-11-15T02:05:35;25.08;;;10.32;;
73428;SDS011;61643;49.564;17.412;2022-11-15T02:08:01;22.95;;;9.13;;
73428;SDS011;61643;49.564;17.412;2022-11-15T02:10:27;19.50;;;9.25;;
73428;SDS011;61643;49.564;17.412;2022-11-15T02:12:53;25.52;;;9.35;;
73428;SDS011;61643;49.564;17.412;2022-11-15T02:15:20;21.88;;;9.30;;
73428;SDS011;61643;49.564;17.412;2022-11-15T02:20:41;20.33;;;9.13;;
73428;SDS011;61643;49.564;17.412;2022-11-15T02:42:04;16.17;;;7.78;;
73428;SDS011;61643;49.564;17.412;2022-11-15T02:44:56;19.25;;;8.23;;
73428;SDS011;61643;49.564;17.412;2022-11-15T02:47:26;20.42;;;8.75;;
73428;SDS011;61643;49.564;17.412;2022-11-15T02:49:57;22.77;;;9.02;;
73428;SDS011;61643;49.564;17.412;2022-11-15T02:52:25;23.42;;;9.63;;
73428;SDS011;61643;49.564;17.412;2022-11-15T02:54:53;21.45;;;9.27;;
73428;SDS011;61643;49.564;17.412;2022-11-15T02:57:20;21.95;;;8.90;;
73428;SDS011;61643;49.564;17.412;2022-11-15T03:00:08;21.10;;;9.55;;
73428;SDS011;61643;49.564;17.412;2022-11-15T03:02:42;21.30;;;10.23;;
73428;SDS011;61643;49.564;17.412;2022-11-15T03:10:46;25.27;;;10.65;;
73428;SDS011;61643;49.564;17.412;2022-11-15T03:13:31;31.77;;;9.55;;
73428;SDS011;61643;49.564;17.412;2022-11-15T03:18:52;21.77;;;9.27;;
73428;SDS011;61643;49.564;17.412;2022-11-15T03:21:27;20.30;;;8.82;;
73428;SDS011;61643;49.564;17.412;2022-11-15T03:23:54;21.20;;;9.32;;
73428;SDS011;61643;49.564;17.412;2022-11-15T03:31:19;23.40;;;9.15;;
73428;SDS011;61643;49.564;17.412;2022-11-15T03:34:06;19.85;;;8.25;;
73428;SDS011;61643;49.564;17.412;2022-11-15T03:36:36;17.23;;;8.32;;
73428;SDS011;61643;49.564;17.412;2022-11-15T03:39:04;19.40;;;8.88;;
73428;SDS011;61643;49.564;17.412;2022-11-15T03:41:37;19.20;;;9.27;;
73428;SDS011;61643;49.564;17.412;2022-11-15T03:46:44;15.52;;;7.57;;
73428;SDS011;61643;49.564;17.412;2022-11-15T03:49:16;18.60;;;8.38;;
73428;SDS011;61643;49.564;17.412;2022-11-15T03:51:47;20.40;;;8.82;;
73428;SDS011;61643;49.564;17.412;2022-11-15T03:54:12;19.83;;;8.03;;
73428;SDS011;61643;49.564;17.412;2022-11-15T03:56:38;17.45;;;8.18;;
73428;SDS011;61643;49.564;17.412;2022-11-15T03:59:04;17.77;;;8.60;;
73428;SDS011;61643;49.564;17.412;2022-11-15T04:01:29;19.13;;;7.93;;
73428;SDS011;61643;49.564;17.412;2022-11-15T04:03:54;15.77;;;7.30;;
73428;SDS011;61643;49.564;17.412;2022-11-15T04:06:19;17.70;;;7.67;;
73428;SDS011;61643;49.564;17.412;2022-11-15T04:08:45;17.20;;;8.47;;
73428;SDS011;61643;49.564;17.412;2022-11-15T04:11:10;19.75;;;8.40;;
73428;SDS011;61643;49.564;17.412;2022-11-15T04:13:36;16.37;;;7.63;;
73428;SDS011;61643;49.564;17.412;2022-11-15T04:16:01;18.83;;;8.33;;
73428;SDS011;61643;49.564;17.412;2022-11-15T04:18:26;19.67;;;8.87;;
73428;SDS011;61643;49.564;17.412;2022-11-15T04:20:52;17.53;;;7.83;;
73428;SDS011;61643;49.564;17.412;2022-11-15T04:23:36;18.08;;;8.15;;
73428;SDS011;61643;49.564;17.412;2022-11-15T04:26:20;16.58;;;7.43;;
73428;SDS011;61643;49.564;17.412;2022-11-15T04:28:48;19.38;;;8.30;;
73428;SDS011;61643;49.564;17.412;2022-11-15T04:31:31;18.75;;;8.32;;
73428;SDS011;61643;49.564;17.412;2022-11-15T04:33:57;14.95;;;7.63;;
73428;SDS011;61643;49.564;17.412;2022-11-15T04:36:23;17.02;;;7.95;;
73428;SDS011;61643;49.564;17.412;2022-11-15T04:39:07;14.32;;;7.22;;
73428;SDS011;61643;49.564;17.412;2022-11-15T04:41:32;17.93;;;8.53;;
73428;SDS011;61643;49.564;17.412;2022-11-15T04:43:57;15.67;;;8.13;;
73428;SDS011;61643;49.564;17.412;2022-11-15T04:46:23;19.07;;;9.17;;
73428;SDS011;61643;49.564;17.412;2022-11-15T04:48:49;18.25;;;8.55;;
73428;SDS011;61643;49.564;17.412;2022-11-15T04:51:15;18.30;;;8.15;;
73428;SDS011;61643;49.564;17.412;2022-11-15T04:53:41;20.50;;;9.13;;
73428;SDS011;61643;49.564;17.412;2022-11-15T04:56:06;19.17;;;8.57;;
73428;SDS011;61643;49.564;17.412;2022-11-15T04:58:32;16.45;;;7.93;;
73428;SDS011;61643;49.564;17.412;2022-11-15T05:00:57;15.18;;;7.55;;
73428;SDS011;61643;49.564;17.412;2022-11-15T05:03:23;17.90;;;8.03;;
73428;SDS011;61643;49.564;17.412;2022-11-15T05:06:07;16.75;;;7.50;;
73428;SDS011;61643;49.564;17.412;2022-11-15T05:08:32;16.53;;;7.73;;
73428;SDS011;61643;49.564;17.412;2022-11-15T05:10:58;16.33;;;7.18;;
73428;SDS011;61643;49.564;17.412;2022-11-15T05:13:23;14.90;;;7.67;;
73428;SDS011;61643;49.564;17.412;2022-11-15T05:15:49;18.85;;;7.70;;
73428;SDS011;61643;49.564;17.412;2022-11-15T05:18:14;17.43;;;7.83;;
73428;SDS011;61643;49.564;17.412;2022-11-15T05:20:39;18.17;;;8.00;;
73428;SDS011;61643;49.564;17.412;2022-11-15T05:23:05;18.70;;;8.07;;
73428;SDS011;61643;49.564;17.412;2022-11-15T05:25:30;18.70;;;8.70;;
73428;SDS011;61643;49.564;17.412;2022-11-15T05:27:56;22.40;;;8.90;;
73428;SDS011;61643;49.564;17.412;2022-11-15T05:30:21;18.30;;;9.25;;
73428;SDS011;61643;49.564;17.412;2022-11-15T05:32:47;22.97;;;9.83;;
73428;SDS011;61643;49.564;17.412;2022-11-15T05:35:13;21.52;;;10.15;;
73428;SDS011;61643;49.564;17.412;2022-11-15T05:37:45;19.80;;;8.77;;
73428;SDS011;61643;49.564;17.412;2022-11-15T05:40:10;18.40;;;8.23;;
73428;SDS011;61643;49.564;17.412;2022-11-15T05:42:35;18.90;;;9.02;;
73428;SDS011;61643;49.564;17.412;2022-11-15T05:45:02;18.55;;;8.13;;
73428;SDS011;61643;49.564;17.412;2022-11-15T05:47:29;17.02;;;7.53;;
73428;SDS011;61643;49.564;17.412;2022-11-15T05:49:55;17.40;;;7.68;;
73428;SDS011;61643;49.564;17.412;2022-11-15T05:52:22;18.88;;;8.30;;
73428;SDS011;61643;49.564;17.412;2022-11-15T05:54:53;18.05;;;7.93;;
73428;SDS011;61643;49.564;17.412;2022-11-15T05:57:20;17.02;;;7.72;;
73428;SDS011;61643;49.564;17.412;2022-11-15T05:59:46;19.10;;;8.63;;
73428;SDS011;61643;49.564;17.412;2022-11-15T06:02:11;15.98;;;6.88;;
73428;SDS011;61643;49.564;17.412;2022-11-15T06:04:37;16.98;;;8.10;;
73428;SDS011;61643;49.564;17.412;2022-11-15T06:07:02;19.87;;;7.83;;
73428;SDS011;61643;49.564;17.412;2022-11-15T06:09:27;16.03;;;7.60;;
73428;SDS011;61643;49.564;17.412;2022-11-15T06:11:53;14.43;;;7.67;;
73428;SDS011;61643;49.564;17.412;2022-11-15T06:14:18;18.37;;;8.00;;
73428;SDS011;61643;49.564;17.412;2022-11-15T06:16:44;16.58;;;7.40;;
73428;SDS011;61643;49.564;17.412;2022-11-15T06:19:09;17.58;;;7.78;;
73428;SDS011;61643;49.564;17.412;2022-11-15T06:21:34;18.23;;;8.27;;
73428;SDS011;61643;49.564;17.412;2022-11-15T06:24:00;16.52;;;8.02;;
73428;SDS011;61643;49.564;17.412;2022-11-15T06:26:26;14.68;;;7.25;;
73428;SDS011;61643;49.564;17.412;2022-11-15T06:28:51;18.37;;;8.03;;
73428;SDS011;61643;49.564;17.412;2022-11-15T06:31:16;17.53;;;7.80;;
73428;SDS011;61643;49.564;17.412;2022-11-15T06:33:42;21.17;;;8.77;;
73428;SDS011;61643;49.564;17.412;2022-11-15T06:36:08;18.07;;;7.90;;
73428;SDS011;61643;49.564;17.412;2022-11-15T06:38:35;15.90;;;7.25;;
73428;SDS011;61643;49.564;17.412;2022-11-15T06:41:02;19.10;;;7.88;;
73428;SDS011;61643;49.564;17.412;2022-11-15T06:43:29;19.13;;;7.80;;
73428;SDS011;61643;49.564;17.412;2022-11-15T06:45:54;19.95;;;9.10;;
73428;SDS011;61643;49.564;17.412;2022-11-15T06:48:20;21.27;;;8.27;;
73428;SDS011;61643;49.564;17.412;2022-11-15T06:50:51;19.13;;;8.73;;
73428;SDS011;61643;49.564;17.412;2022-11-15T06:53:17;16.80;;;8.43;;
73428;SDS011;61643;49.564;17.412;2022-11-15T06:55:43;18.00;;;8.40;;
73428;SDS011;61643;49.564;17.412;2022-11-15T06:58:08;18.10;;;8.27;;
73428;SDS011;61643;49.564;17.412;2022-11-15T07:00:33;18.50;;;8.40;;
73428;SDS011;61643;49.564;17.412;2022-11-15T07:02:59;18.93;;;8.47;;
73428;SDS011;61643;49.564;17.412;2022-11-15T07:05:25;21.63;;;8.73;;
73428;SDS011;61643;49.564;17.412;2022-11-15T07:07:55;18.40;;;7.85;;
73428;SDS011;61643;49.564;17.412;2022-11-15T07:10:22;18.42;;;8.45;;
73428;SDS011;61643;49.564;17.412;2022-11-15T07:12:50;19.17;;;8.30;;
73428;SDS011;61643;49.564;17.412;2022-11-15T07:15:19;20.45;;;9.45;;
73428;SDS011;61643;49.564;17.412;2022-11-15T07:17:46;19.17;;;9.50;;
73428;SDS011;61643;49.564;17.412;2022-11-15T07:20:12;21.00;;;8.80;;
73428;SDS011;61643;49.564;17.412;2022-11-15T07:22:39;17.60;;;8.57;;
73428;SDS011;61643;49.564;17.412;2022-11-15T07:25:06;22.67;;;9.45;;
73428;SDS011;61643;49.564;17.412;2022-11-15T07:27:32;33.05;;;12.52;;
73428;SDS011;61643;49.564;17.412;2022-11-15T07:29:58;28.05;;;10.88;;
73428;SDS011;61643;49.564;17.412;2022-11-15T07:32:23;26.85;;;13.32;;
73428;SDS011;61643;49.564;17.412;2022-11-15T07:34:48;25.90;;;13.70;;
73428;SDS011;61643;49.564;17.412;2022-11-15T07:37:14;32.80;;;16.63;;
73428;SDS011;61643;49.564;17.412;2022-11-15T07:39:39;31.48;;;14.95;;
73428;SDS011;61643;49.564;17.412;2022-11-15T07:42:05;32.60;;;14.73;;
73428;SDS011;61643;49.564;17.412;2022-11-15T07:44:56;33.67;;;15.00;;
73428;SDS011;61643;49.564;17.412;2022-11-15T07:47:21;33.77;;;15.37;;
73428;SDS011;61643;49.564;17.412;2022-11-15T07:49:47;31.03;;;15.27;;
73428;SDS011;61643;49.564;17.412;2022-11-15T07:52:12;34.70;;;15.77;;
73428;SDS011;61643;49.564;17.412;2022-11-15T07:54:38;36.35;;;16.02;;
73428;SDS011;61643;49.564;17.412;2022-11-15T07:57:04;31.15;;;15.07;;
73428;SDS011;61643;49.564;17.412;2022-11-15T07:59:30;31.00;;;14.18;;
73428;SDS011;61643;49.564;17.412;2022-11-15T08:01:56;33.77;;;14.93;;
73428;SDS011;61643;49.564;17.412;2022-11-15T08:04:21;35.30;;;15.63;;
73428;SDS011;61643;49.564;17.412;2022-11-15T08:06:47;31.10;;;14.85;;
73428;SDS011;61643;49.564;17.412;2022-11-15T08:09:12;33.80;;;15.37;;
73428;SDS011;61643;49.564;17.412;2022-11-15T08:11:37;31.80;;;15.27;;
73428;SDS011;61643;49.564;17.412;2022-11-15T08:14:03;28.33;;;13.37;;
73428;SDS011;61643;49.564;17.412;2022-11-15T08:16:28;26.38;;;11.15;;
73428;SDS011;61643;49.564;17.412;2022-11-15T08:18:53;23.87;;;10.80;;
73428;SDS011;61643;49.564;17.412;2022-11-15T08:21:19;24.00;;;10.57;;
73428;SDS011;61643;49.564;17.412;2022-11-15T08:23:46;23.58;;;9.82;;
73428;SDS011;61643;49.564;17.412;2022-11-15T08:26:11;21.40;;;10.38;;
73428;SDS011;61643;49.564;17.412;2022-11-15T08:28:37;25.10;;;12.35;;
73428;SDS011;61643;49.564;17.412;2022-11-15T08:31:03;23.65;;;11.50;;
73428;SDS011;61643;49.564;17.412;2022-11-15T08:33:28;24.20;;;11.07;;
73428;SDS011;61643;49.564;17.412;2022-11-15T08:35:59;26.38;;;12.35;;
73428;SDS011;61643;49.564;17.412;2022-11-15T08:38:25;27.73;;;13.02;;
73428;SDS011;61643;49.564;17.412;2022-11-15T08:40:53;29.98;;;14.30;;
73428;SDS011;61643;49.564;17.412;2022-11-15T08:43:26;29.33;;;14.85;;
73428;SDS011;61643;49.564;17.412;2022-11-15T08:45:51;26.90;;;12.27;;
73428;SDS011;61643;49.564;17.412;2022-11-15T08:48:16;25.33;;;11.67;;
73428;SDS011;61643;49.564;17.412;2022-11-15T08:50:42;28.30;;;12.50;;
73428;SDS011;61643;49.564;17.412;2022-11-15T08:53:08;26.10;;;12.10;;
73428;SDS011;61643;49.564;17.412;2022-11-15T08:55:37;23.88;;;11.93;;
73428;SDS011;61643;49.564;17.412;2022-11-15T08:58:03;27.23;;;11.88;;
73428;SDS011;61643;49.564;17.412;2022-11-15T09:00:29;22.15;;;10.88;;
73428;SDS011;61643;49.564;17.412;2022-11-15T09:02:54;27.87;;;13.00;;
73428;SDS011;61643;49.564;17.412;2022-11-15T09:05:20;25.60;;;11.07;;
73428;SDS011;61643;49.564;17.412;2022-11-15T09:07:45;27.48;;;12.80;;
73428;SDS011;61643;49.564;17.412;2022-11-15T09:10:11;28.87;;;13.33;;
73428;SDS011;61643;49.564;17.412;2022-11-15T09:12:36;24.47;;;11.33;;
73428;SDS011;61643;49.564;17.412;2022-11-15T09:15:02;29.35;;;12.57;;
73428;SDS011;61643;49.564;17.412;2022-11-15T09:17:28;29.38;;;12.30;;
73428;SDS011;61643;49.564;17.412;2022-11-15T09:19:53;27.80;;;13.00;;
73428;SDS011;61643;49.564;17.412;2022-11-15T09:22:18;33.23;;;14.50;;
73428;SDS011;61643;49.564;17.412;2022-11-15T09:24:44;28.97;;;12.80;;
73428;SDS011;61643;49.564;17.412;2022-11-15T09:27:09;28.15;;;13.18;;
73428;SDS011;61643;49.564;17.412;2022-11-15T09:29:34;29.33;;;12.47;;
73428;SDS011;61643;49.564;17.412;2022-11-15T09:32:00;31.17;;;12.77;;
73428;SDS011;61643;49.564;17.412;2022-11-15T09:34:25;31.88;;;13.63;;
73428;SDS011;61643;49.564;17.412;2022-11-15T09:36:51;31.60;;;14.23;;
73428;SDS011;61643;49.564;17.412;2022-11-15T09:39:16;31.13;;;13.80;;
73428;SDS011;61643;49.564;17.412;2022-11-15T09:49:35;34.65;;;16.25;;
73428;SDS011;61643;49.564;17.412;2022-11-15T09:52:00;33.95;;;15.00;;
73428;SDS011;61643;49.564;17.412;2022-11-15T09:54:30;35.67;;;16.00;;
73428;SDS011;61643;49.564;17.412;2022-11-15T09:57:05;35.85;;;15.85;;
73428;SDS011;61643;49.564;17.412;2022-11-15T09:59:39;31.00;;;15.60;;
73428;SDS011;61643;49.564;17.412;2022-11-15T10:05:22;39.50;;;15.73;;
73428;SDS011;61643;49.564;17.412;2022-11-15T10:12:47;35.70;;;14.70;;
73428;SDS011;61643;49.564;17.412;2022-11-15T10:15:16;32.78;;;13.93;;
73428;SDS011;61643;49.564;17.412;2022-11-15T10:20:32;31.08;;;14.00;;
73428;SDS011;61643;49.564;17.412;2022-11-15T10:23:10;32.80;;;14.65;;
73428;SDS011;61643;49.564;17.412;2022-11-15T10:25:38;29.55;;;13.93;;
73428;SDS011;61643;49.564;17.412;2022-11-15T10:33:12;30.88;;;13.52;;
73428;SDS011;61643;49.564;17.412;2022-11-15T10:35:42;30.15;;;13.43;;
73428;SDS011;61643;49.564;17.412;2022-11-15T10:38:11;28.15;;;13.25;;
73428;SDS011;61643;49.564;17.412;2022-11-15T10:40:38;28.38;;;13.43;;
73428;SDS011;61643;49.564;17.412;2022-11-15T10:45:38;25.85;;;12.52;;
73428;SDS011;61643;49.564;17.412;2022-11-15T10:50:45;28.13;;;13.30;;
73428;SDS011;61643;49.564;17.412;2022-11-15T10:53:22;33.67;;;14.25;;
73428;SDS011;61643;49.564;17.412;2022-11-15T10:55:53;30.33;;;14.27;;
73428;SDS011;61643;49.564;17.412;2022-11-15T10:58:30;30.42;;;13.32;;
73428;SDS011;61643;49.564;17.412;2022-11-15T11:01:14;33.83;;;14.70;;
73428;SDS011;61643;49.564;17.412;2022-11-15T11:03:42;30.63;;;13.57;;
73428;SDS011;61643;49.564;17.412;2022-11-15T11:06:10;30.15;;;14.25;;
73428;SDS011;61643;49.564;17.412;2022-11-15T11:08:47;31.42;;;14.73;;
73428;SDS011;61643;49.564;17.412;2022-11-15T11:11:18;31.02;;;13.77;;
73428;SDS011;61643;49.564;17.412;2022-11-15T11:13:44;31.92;;;14.35;;
73428;SDS011;61643;49.564;17.412;2022-11-15T11:22:09;33.53;;;14.65;;
73428;SDS011;61643;49.564;17.412;2022-11-15T11:38:19;30.08;;;13.55;;
73428;SDS011;61643;49.564;17.412;2022-11-15T11:41:17;27.35;;;13.73;;
73428;SDS011;61643;49.564;17.412;2022-11-15T11:49:18;28.48;;;13.30;;
73428;SDS011;61643;49.564;17.412;2022-11-15T11:52:00;27.98;;;12.48;;
73428;SDS011;61643;49.564;17.412;2022-11-15T12:00:20;36.95;;;15.80;;
73428;SDS011;61643;49.564;17.412;2022-11-15T12:11:13;29.88;;;14.02;;
73428;SDS011;61643;49.564;17.412;2022-11-15T12:13:43;34.45;;;15.55;;
73428;SDS011;61643;49.564;17.412;2022-11-15T12:18:51;36.47;;;16.13;;
73428;SDS011;61643;49.564;17.412;2022-11-15T12:22:02;36.13;;;16.60;;
73428;SDS011;61643;49.564;17.412;2022-11-15T12:24:16;33.85;;;16.17;;
73428;SDS011;61643;49.564;17.412;2022-11-15T12:26:59;33.05;;;15.85;;
73428;SDS011;61643;49.564;17.412;2022-11-15T12:29:33;34.92;;;15.63;;
73428;SDS011;61643;49.564;17.412;2022-11-15T12:32:04;29.70;;;13.68;;
73428;SDS011;61643;49.564;17.412;2022-11-15T12:34:42;30.38;;;14.25;;
73428;SDS011;61643;49.564;17.412;2022-11-15T12:38:11;36.33;;;15.13;;
73428;SDS011;61643;49.564;17.412;2022-11-15T12:45:36;34.35;;;16.73;;
73428;SDS011;61643;49.564;17.412;2022-11-15T12:50:52;39.78;;;18.10;;
73428;SDS011;61643;49.564;17.412;2022-11-15T13:01:08;31.38;;;13.80;;
73428;SDS011;61643;49.564;17.412;2022-11-15T13:03:34;34.00;;;13.82;;
73428;SDS011;61643;49.564;17.412;2022-11-15T13:06:01;30.98;;;13.25;;
73428;SDS011;61643;49.564;17.412;2022-11-15T13:08:36;36.65;;;17.92;;
73428;SDS011;61643;49.564;17.412;2022-11-15T13:14:35;29.38;;;13.63;;
73428;SDS011;61643;49.564;17.412;2022-11-15T13:17:21;30.23;;;14.07;;
73428;SDS011;61643;49.564;17.412;2022-11-15T13:20:32;26.40;;;12.65;;
73428;SDS011;61643;49.564;17.412;2022-11-15T13:22:49;32.05;;;13.30;;
73428;SDS011;61643;49.564;17.412;2022-11-15T13:28:36;32.13;;;13.48;;
73428;SDS011;61643;49.564;17.412;2022-11-15T13:33:53;31.63;;;14.70;;
73428;SDS011;61643;49.564;17.412;2022-11-15T13:36:23;26.73;;;13.30;;
73428;SDS011;61643;49.564;17.412;2022-11-15T13:39:04;26.17;;;13.25;;
73428;SDS011;61643;49.564;17.412;2022-11-15T13:41:50;22.27;;;11.25;;
73428;SDS011;61643;49.564;17.412;2022-11-15T13:44:24;25.33;;;11.73;;
73428;SDS011;61643;49.564;17.412;2022-11-15T13:47:05;26.52;;;12.23;;
73428;SDS011;61643;49.564;17.412;2022-11-15T13:49:31;26.85;;;12.05;;
73428;SDS011;61643;49.564;17.412;2022-11-15T13:51:57;27.42;;;13.30;;
73428;SDS011;61643;49.564;17.412;2022-11-15T13:54:27;29.15;;;13.05;;
73428;SDS011;61643;49.564;17.412;2022-11-15T13:57:01;30.42;;;15.05;;
73428;SDS011;61643;49.564;17.412;2022-11-15T13:59:34;34.38;;;14.68;;
73428;SDS011;61643;49.564;17.412;2022-11-15T14:02:11;30.48;;;13.32;;
73428;SDS011;61643;49.564;17.412;2022-11-15T14:04:45;29.80;;;14.10;;
73428;SDS011;61643;49.564;17.412;2022-11-15T14:07:16;31.17;;;14.35;;
73428;SDS011;61643;49.564;17.412;2022-11-15T14:09:44;48.25;;;20.77;;
73428;SDS011;61643;49.564;17.412;2022-11-15T14:14:54;37.08;;;17.23;;
73428;SDS011;61643;49.564;17.412;2022-11-15T14:19:54;38.10;;;17.73;;
73428;SDS011;61643;49.564;17.412;2022-11-15T14:22:26;42.58;;;18.98;;
73428;SDS011;61643;49.564;17.412;2022-11-15T14:30:42;46.58;;;19.27;;
73428;SDS011;61643;49.564;17.412;2022-11-15T14:33:53;46.35;;;20.80;;
73428;SDS011;61643;49.564;17.412;2022-11-15T14:36:14;42.53;;;19.15;;
73428;SDS011;61643;49.564;17.412;2022-11-15T14:38:42;45.95;;;21.13;;
73428;SDS011;61643;49.564;17.412;2022-11-15T14:41:26;47.75;;;21.20;;
73428;SDS011;61643;49.564;17.412;2022-11-15T14:43:51;48.08;;;22.38;;
73428;SDS011;61643;49.564;17.412;2022-11-15T14:46:17;69.78;;;30.52;;
73428;SDS011;61643;49.564;17.412;2022-11-15T14:48:43;66.78;;;29.58;;
73428;SDS011;61643;49.564;17.412;2022-11-15T14:51:10;66.63;;;30.43;;
73428;SDS011;61643;49.564;17.412;2022-11-15T14:53:37;71.32;;;33.83;;
73428;SDS011;61643;49.564;17.412;2022-11-15T14:56:03;69.37;;;30.77;;
73428;SDS011;61643;49.564;17.412;2022-11-15T14:58:28;80.93;;;37.20;;
73428;SDS011;61643;49.564;17.412;2022-11-15T15:00:54;74.10;;;35.50;;
73428;SDS011;61643;49.564;17.412;2022-11-15T15:03:19;83.72;;;39.55;;
73428;SDS011;61643;49.564;17.412;2022-11-15T15:05:44;92.23;;;39.37;;
73428;SDS011;61643;49.564;17.412;2022-11-15T15:08:10;90.87;;;39.93;;
73428;SDS011;61643;49.564;17.412;2022-11-15T15:10:36;83.47;;;37.30;;
73428;SDS011;61643;49.564;17.412;2022-11-15T15:13:05;81.72;;;37.42;;
73428;SDS011;61643;49.564;17.412;2022-11-15T15:15:32;91.93;;;42.85;;
73428;SDS011;61643;49.564;17.412;2022-11-15T15:20:24;68.07;;;31.77;;
73428;SDS011;61643;49.564;17.412;2022-11-15T15:22:50;62.10;;;25.80;;
73428;SDS011;61643;49.564;17.412;2022-11-15T15:25:31;65.30;;;28.07;;
73428;SDS011;61643;49.564;17.412;2022-11-15T15:27:58;60.35;;;28.52;;
73428;SDS011;61643;49.564;17.412;2022-11-15T15:30:25;66.13;;;29.40;;
73428;SDS011;61643;49.564;17.412;2022-11-15T15:32:51;67.72;;;29.80;;
73428;SDS011;61643;49.564;17.412;2022-11-15T15:35:17;61.95;;;28.67;;
73428;SDS011;61643;49.564;17.412;2022-11-15T15:37:43;64.00;;;28.60;;
73428;SDS011;61643;49.564;17.412;2022-11-15T15:42:43;87.25;;;40.08;;
73428;SDS011;61643;49.564;17.412;2022-11-15T15:45:09;74.38;;;31.75;;
73428;SDS011;61643;49.564;17.412;2022-11-15T15:47:35;83.90;;;36.35;;
73428;SDS011;61643;49.564;17.412;2022-11-15T15:50:00;78.60;;;36.63;;
73428;SDS011;61643;49.564;17.412;2022-11-15T15:52:26;93.50;;;40.03;;
73428;SDS011;61643;49.564;17.412;2022-11-15T15:54:51;86.87;;;37.50;;
73428;SDS011;61643;49.564;17.412;2022-11-15T15:57:17;82.85;;;37.75;;
73428;SDS011;61643;49.564;17.412;2022-11-15T15:59:43;75.95;;;34.58;;
73428;SDS011;61643;49.564;17.412;2022-11-15T16:02:11;75.05;;;34.80;;
73428;SDS011;61643;49.564;17.412;2022-11-15T16:04:39;60.05;;;29.42;;
73428;SDS011;61643;49.564;17.412;2022-11-15T16:07:05;67.40;;;30.38;;
73428;SDS011;61643;49.564;17.412;2022-11-15T16:09:31;71.55;;;32.03;;
73428;SDS011;61643;49.564;17.412;2022-11-15T16:12:14;66.88;;;32.00;;
73428;SDS011;61643;49.564;17.412;2022-11-15T16:14:41;69.93;;;30.38;;
73428;SDS011;61643;49.564;17.412;2022-11-15T16:17:17;68.95;;;31.80;;
73428;SDS011;61643;49.564;17.412;2022-11-15T16:19:45;60.70;;;27.15;;
73428;SDS011;61643;49.564;17.412;2022-11-15T16:22:10;61.27;;;27.37;;
73428;SDS011;61643;49.564;17.412;2022-11-15T16:24:35;79.10;;;33.88;;
73428;SDS011;61643;49.564;17.412;2022-11-15T16:27:01;92.03;;;37.57;;
73428;SDS011;61643;49.564;17.412;2022-11-15T16:29:27;104.43;;;43.00;;
73428;SDS011;61643;49.564;17.412;2022-11-15T16:31:53;86.88;;;37.40;;
73428;SDS011;61643;49.564;17.412;2022-11-15T16:34:18;65.30;;;29.52;;
73428;SDS011;61643;49.564;17.412;2022-11-15T16:36:44;59.73;;;29.10;;
73428;SDS011;61643;49.564;17.412;2022-11-15T16:39:12;71.93;;;32.17;;
73428;SDS011;61643;49.564;17.412;2022-11-15T16:41:43;63.60;;;30.75;;
73428;SDS011;61643;49.564;17.412;2022-11-15T16:46:37;68.97;;;31.00;;
73428;SDS011;61643;49.564;17.412;2022-11-15T16:49:07;65.82;;;30.30;;
73428;SDS011;61643;49.564;17.412;2022-11-15T16:51:38;80.18;;;36.42;;
73428;SDS011;61643;49.564;17.412;2022-11-15T16:54:05;78.40;;;38.10;;